Time;durP1;ratioP1;P1;durP2;ratioP2;P2;SDS_P1;SDS_P2;PMS_P1;PMS_P2;Temp;Humidity;BMP_temperature;BMP_pressure;BME280_temperature;BME280_humidity;BME280_pressure;Samples;Min_cycle;Max_cycle;Signal;HPM_P1;HPM_P2
2022/01/26 00:06:28;;;;;;;;;39.33;36.67;;;;;;;;5098854;28;11445;-72
2022/01/26 00:08:53;;;;;;;;;40.33;33.33;;;;;;;;5098805;28;13602;-71
2022/01/26 00:11:19;;;;;;;;;32.33;29.33;;;;;;;;5098304;28;14416;-72
2022/01/26 00:13:44;;;;;;;;;37.00;32.00;;;;;;;;5098476;28;10354;-71
2022/01/26 00:16:20;;;;;;;;;39.33;32.00;;;;;;;;5098663;28;12459;-72
2022/01/26 00:18:45;;;;;;;;;36.33;31.33;;;;;;;;5099672;28;8953;-72
2022/01/26 00:21:25;;;;;;;;;45.50;40.25;;;;;;;;5083989;28;13617;-72
2022/01/26 00:26:34;;;;;;;;;37.00;32.00;;;;;;;;5102234;28;8764;-71
2022/01/26 00:29:11;;;;;;;;;39.00;36.00;;;;;;;;5102188;28;13300;-73
2022/01/26 00:39:58;;;;;;;;;46.67;39.33;;;;;;;;5101604;28;12517;-72
2022/01/26 00:42:23;;;;;;;;;37.50;36.00;;;;;;;;5101383;28;13473;-72
2022/01/26 00:44:50;;;;;;;;;47.50;42.00;;;;;;;;5082856;28;13664;-73
2022/01/26 00:47:15;;;;;;;;;42.50;39.75;;;;;;;;5101821;28;10917;-73
2022/01/26 00:49:41;;;;;;;;;44.75;38.25;;;;;;;;5101777;28;13600;-73
2022/01/26 00:52:11;;;;;;;;;53.50;44.75;;;;;;;;5101984;28;10370;-73
2022/01/26 00:54:36;;;;;;;;;38.50;34.75;;;;;;;;5101508;28;13709;-72
2022/01/26 00:57:02;;;;;;;;;52.00;46.25;;;;;;;;5101793;28;8882;-72
2022/01/26 00:59:27;;;;;;;;;49.25;43.75;;;;;;;;5101881;28;12402;-73
2022/01/26 01:01:55;;;;;;;;;51.25;44.00;;;;;;;;5101081;28;12265;-72
2022/01/26 01:04:20;;;;;;;;;64.50;50.00;;;;;;;;5101578;28;13490;-72
2022/01/26 01:06:51;;;;;;;;;53.25;45.75;;;;;;;;5101804;28;12360;-72
2022/01/26 01:09:17;;;;;;;;;55.00;47.00;;;;;;;;5101633;28;13294;-72
2022/01/26 01:11:43;;;;;;;;;57.25;48.50;;;;;;;;5101162;28;12728;-73
2022/01/26 01:14:09;;;;;;;;;52.00;46.00;;;;;;;;5100805;28;11623;-72
2022/01/26 01:16:34;;;;;;;;;46.75;43.50;;;;;;;;5082998;28;13477;-72
2022/01/26 01:31:47;;;;;;;;;48.25;44.75;;;;;;;;5100151;28;13310;-72
2022/01/26 01:34:15;;;;;;;;;57.25;45.25;;;;;;;;5082385;28;12786;-72
2022/01/26 01:36:42;;;;;;;;;42.75;41.75;;;;;;;;5101378;28;12812;-72
2022/01/26 01:39:08;;;;;;;;;54.25;45.00;;;;;;;;5100815;28;12523;-73
2022/01/26 01:41:34;;;;;;;;;40.75;36.50;;;;;;;;5100664;28;13736;-72
2022/01/26 01:43:59;;;;;;;;;57.50;46.25;;;;;;;;5101021;28;13663;-72
2022/01/26 01:46:26;;;;;;;;;49.00;41.00;;;;;;;;5101187;28;14417;-72
2022/01/26 01:48:51;;;;;;;;;44.50;40.25;;;;;;;;5101069;28;13301;-73
2022/01/26 01:51:18;;;;;;;;;42.00;34.50;;;;;;;;5082158;28;13619;-72
2022/01/26 01:53:44;;;;;;;;;43.50;42.50;;;;;;;;5100675;28;12466;-73
2022/01/26 01:56:11;;;;;;;;;45.50;41.75;;;;;;;;5100664;28;12700;-73
2022/01/26 01:58:37;;;;;;;;;48.50;43.75;;;;;;;;5100921;28;11479;-73
2022/01/26 02:01:03;;;;;;;;;51.50;44.00;;;;;;;;5100004;28;9842;-72
2022/01/26 02:03:28;;;;;;;;;50.75;45.75;;;;;;;;5100595;28;13396;-72
2022/01/26 02:05:54;;;;;;;;;61.50;49.25;;;;;;;;5100925;28;11499;-72
2022/01/26 02:08:19;;;;;;;;;61.00;52.00;;;;;;;;5100625;28;12268;-73
2022/01/26 02:10:45;;;;;;;;;62.25;52.25;;;;;;;;5100538;28;13714;-72
2022/01/26 02:16:35;;;;;;;;;51.75;48.50;;;;;;;;5100350;28;11459;-72
2022/01/26 02:51:32;;;;;;;;;68.50;57.50;;;;;;;;5100390;28;10203;-70
2022/01/26 02:56:46;;;;;;;;;69.50;53.50;;;;;;;;5099526;28;10458;-71
2022/01/26 03:07:04;;;;;;;;;70.50;57.25;;;;;;;;5099512;28;11500;-71
2022/01/26 03:09:39;;;;;;;;;71.75;57.00;;;;;;;;5100137;28;8866;-71
2022/01/26 03:12:06;;;;;;;;;69.50;55.75;;;;;;;;5099506;28;11657;-71
2022/01/26 03:14:55;;;;;;;;;67.00;57.00;;;;;;;;5098907;28;13888;-71
2022/01/26 03:20:09;;;;;;;;;75.00;57.50;;;;;;;;5099895;28;10560;-71
2022/01/26 03:33:23;;;;;;;;;77.75;62.50;;;;;;;;5099498;28;13313;-71
2022/01/26 03:35:52;;;;;;;;;74.50;61.25;;;;;;;;5080795;28;15429;-71
2022/01/26 03:38:23;;;;;;;;;80.25;63.25;;;;;;;;5099370;28;11756;-70
2022/01/26 03:40:58;;;;;;;;;78.50;60.50;;;;;;;;5099703;28;12464;-70
2022/01/26 03:43:23;;;;;;;;;77.50;60.25;;;;;;;;5098709;28;13303;-71
2022/01/26 03:45:48;;;;;;;;;69.00;57.00;;;;;;;;5099553;28;12486;-71
2022/01/26 03:48:13;;;;;;;;;71.50;56.50;;;;;;;;5099015;28;13448;-71
2022/01/26 03:50:39;;;;;;;;;69.25;57.00;;;;;;;;5099300;28;13226;-70
2022/01/26 03:53:04;;;;;;;;;69.75;58.00;;;;;;;;5099109;28;13383;-70
2022/01/26 03:55:29;;;;;;;;;74.00;60.25;;;;;;;;5102471;28;8772;-71
2022/01/26 03:57:55;;;;;;;;;61.25;51.50;;;;;;;;5102903;28;13243;-71
2022/01/26 04:00:20;;;;;;;;;75.00;57.00;;;;;;;;5083822;28;13734;-71
2022/01/26 04:02:45;;;;;;;;;67.25;57.00;;;;;;;;5102213;28;13241;-71
2022/01/26 04:05:12;;;;;;;;;70.00;54.50;;;;;;;;5102347;28;10400;-71
2022/01/26 04:07:37;;;;;;;;;48.75;44.50;;;;;;;;5102963;28;13594;-70
2022/01/26 04:12:51;;;;;;;;;68.00;55.50;;;;;;;;5053879;28;14350;-70
2022/01/26 04:15:26;;;;;;;;;67.00;54.00;;;;;;;;5102873;28;10478;-70
2022/01/26 04:17:51;;;;;;;;;61.75;52.00;;;;;;;;5101784;28;11463;-70
2022/01/26 04:20:17;;;;;;;;;63.25;51.25;;;;;;;;5102354;28;11703;-71
2022/01/26 04:22:57;;;;;;;;;68.00;51.25;;;;;;;;5102778;28;11546;-70
2022/01/26 04:25:25;;;;;;;;;71.50;57.75;;;;;;;;5102347;28;8779;-71
2022/01/26 04:27:54;;;;;;;;;65.00;53.50;;;;;;;;5083358;28;14288;-71
2022/01/26 04:30:19;;;;;;;;;65.25;52.00;;;;;;;;5101860;28;14936;-71
2022/01/26 04:32:47;;;;;;;;;68.25;54.00;;;;;;;;5101703;28;10423;-70
2022/01/26 04:35:13;;;;;;;;;62.75;51.25;;;;;;;;5083936;28;9668;-72
2022/01/26 04:40:22;;;;;;;;;68.00;51.50;;;;;;;;5110445;28;12236;-70
2022/01/26 04:42:55;;;;;;;;;60.25;48.75;;;;;;;;5110536;28;13222;-71
2022/01/26 04:45:21;;;;;;;;;63.00;45.75;;;;;;;;5095325;28;13042;-69
2022/01/26 04:47:46;;;;;;;;;59.50;48.75;;;;;;;;5105517;28;10518;-70
2022/01/26 04:50:12;;;;;;;;;62.00;52.75;;;;;;;;5091418;28;12221;-70
2022/01/26 04:52:38;;;;;;;;;68.25;53.00;;;;;;;;5088664;28;13016;-71
2022/01/26 04:55:04;;;;;;;;;57.75;51.50;;;;;;;;5090347;28;11476;-70
2022/01/26 04:57:29;;;;;;;;;67.00;55.00;;;;;;;;5090296;28;13468;-70
2022/01/26 04:59:54;;;;;;;;;66.25;53.00;;;;;;;;5088795;28;13227;-72
2022/01/26 05:02:19;;;;;;;;;63.25;49.00;;;;;;;;5090604;28;10483;-74
2022/01/26 05:04:45;;;;;;;;;71.50;55.25;;;;;;;;5090130;28;9662;-75
2022/01/26 05:07:10;;;;;;;;;61.00;51.00;;;;;;;;5090143;28;13359;-74
2022/01/26 05:09:36;;;;;;;;;62.75;51.25;;;;;;;;5088002;28;13207;-73
2022/01/26 05:12:02;;;;;;;;;62.00;52.00;;;;;;;;5064996;28;13371;-72
2022/01/26 05:14:27;;;;;;;;;65.50;48.75;;;;;;;;5090610;28;10640;-74
2022/01/26 05:16:53;;;;;;;;;69.75;54.75;;;;;;;;5090964;28;13858;-73
2022/01/26 05:19:18;;;;;;;;;62.00;49.00;;;;;;;;5071185;28;12303;-72
2022/01/26 05:21:43;;;;;;;;;65.00;51.50;;;;;;;;5088216;28;12443;-71
2022/01/26 05:24:12;;;;;;;;;66.25;53.50;;;;;;;;5090660;28;12241;-75
2022/01/26 05:26:38;;;;;;;;;69.50;58.00;;;;;;;;5089575;28;10573;-72
2022/01/26 05:29:03;;;;;;;;;71.75;57.00;;;;;;;;5088699;28;12652;-72
2022/01/26 05:31:28;;;;;;;;;68.00;53.33;;;;;;;;5090412;28;12173;-68
2022/01/26 05:33:54;;;;;;;;;78.25;63.75;;;;;;;;5088720;28;13335;-70
2022/01/26 05:36:19;;;;;;;;;72.75;57.00;;;;;;;;5088443;28;12526;-70
2022/01/26 05:38:45;;;;;;;;;69.50;53.50;;;;;;;;5090186;28;12216;-70
2022/01/26 05:41:10;;;;;;;;;71.25;58.00;;;;;;;;5088598;28;13241;-71
2022/01/26 05:43:36;;;;;;;;;73.25;60.75;;;;;;;;5089545;28;13679;-69
2022/01/26 05:46:07;;;;;;;;;67.25;56.00;;;;;;;;5090008;28;12434;-69
2022/01/26 05:48:34;;;;;;;;;67.25;55.25;;;;;;;;5088582;28;13416;-68
2022/01/26 05:51:10;;;;;;;;;75.00;58.50;;;;;;;;5088550;28;8771;-68
2022/01/26 05:53:36;;;;;;;;;72.75;59.75;;;;;;;;5088962;28;13791;-67
2022/01/26 05:56:02;;;;;;;;;72.75;61.00;;;;;;;;5088821;28;11437;-69
2022/01/26 05:58:27;;;;;;;;;69.00;57.25;;;;;;;;5090314;28;11354;-69
2022/01/26 06:00:52;;;;;;;;;70.00;57.00;;;;;;;;5087467;28;13960;-68
2022/01/26 06:03:18;;;;;;;;;70.75;56.50;;;;;;;;5088927;28;13404;-69
2022/01/26 06:05:43;;;;;;;;;63.50;55.00;;;;;;;;5088516;28;10763;-68
2022/01/26 06:08:08;;;;;;;;;73.75;60.50;;;;;;;;5090208;28;13409;-70
2022/01/26 06:10:34;;;;;;;;;84.75;64.50;;;;;;;;5088511;28;15024;-69
2022/01/26 06:12:59;;;;;;;;;72.00;57.00;;;;;;;;5087951;28;11025;-70
2022/01/26 06:15:25;;;;;;;;;71.00;58.00;;;;;;;;5089814;28;13276;-70
2022/01/26 06:17:50;;;;;;;;;70.00;55.00;;;;;;;;5086905;28;9006;-72
2022/01/26 06:20:15;;;;;;;;;70.75;58.00;;;;;;;;5089346;28;8816;-71
2022/01/26 06:22:41;;;;;;;;;75.25;60.75;;;;;;;;5088908;28;9655;-70
2022/01/26 06:25:07;;;;;;;;;81.00;64.00;;;;;;;;5087027;28;12882;-69
2022/01/26 06:27:33;;;;;;;;;76.00;62.50;;;;;;;;5086735;28;13474;-70
2022/01/26 06:29:58;;;;;;;;;76.25;62.00;;;;;;;;5096555;28;13204;-72
2022/01/26 06:32:24;;;;;;;;;74.75;61.50;;;;;;;;5100145;28;8796;-72
2022/01/26 06:34:49;;;;;;;;;76.25;60.25;;;;;;;;5099478;28;11371;-71
2022/01/26 06:37:15;;;;;;;;;88.75;69.00;;;;;;;;5080787;28;13107;-72
2022/01/26 06:39:40;;;;;;;;;90.00;69.25;;;;;;;;5099842;28;14331;-71
2022/01/26 06:42:12;;;;;;;;;79.00;63.50;;;;;;;;5099944;28;14437;-71
2022/01/26 06:44:47;;;;;;;;;83.25;66.25;;;;;;;;5099466;28;13546;-71
2022/01/26 06:49:38;;;;;;;;;85.00;66.25;;;;;;;;5099318;28;14368;-78
2022/01/26 06:52:03;;;;;;;;;78.25;63.25;;;;;;;;5080894;28;15691;-74
2022/01/26 06:54:29;;;;;;;;;84.00;66.00;;;;;;;;5099299;28;12178;-76
2022/01/26 06:56:54;;;;;;;;;86.50;65.50;;;;;;;;5080840;28;14608;-73
2022/01/26 06:59:24;;;;;;;;;82.50;65.00;;;;;;;;5099445;28;12538;-75
2022/01/26 07:01:49;;;;;;;;;80.25;64.00;;;;;;;;5099279;28;11710;-72
2022/01/26 07:04:15;;;;;;;;;79.50;63.50;;;;;;;;5099452;28;10521;-74
2022/01/26 07:06:40;;;;;;;;;82.75;64.25;;;;;;;;5098944;28;13281;-74
2022/01/26 07:09:05;;;;;;;;;81.00;66.00;;;;;;;;5098850;28;14505;-74
2022/01/26 07:11:31;;;;;;;;;78.50;63.75;;;;;;;;5099065;28;11685;-74
2022/01/26 07:13:58;;;;;;;;;90.50;63.50;;;;;;;;5098983;28;14340;-74
2022/01/26 07:19:50;;;;;;;;;82.50;63.25;;;;;;;;5099141;28;12243;-73
2022/01/26 07:22:11;;;;;;;;;90.50;72.25;;;;;;;;5098682;28;12491;-72
2022/01/26 07:24:37;;;;;;;;;91.00;72.00;;;;;;;;5081050;28;12930;-74
2022/01/26 07:27:02;;;;;;;;;83.25;66.50;;;;;;;;5098976;28;11640;-73
2022/01/26 07:29:27;;;;;;;;;88.25;69.50;;;;;;;;5099052;28;13387;-74
2022/01/26 07:31:53;;;;;;;;;87.50;70.50;;;;;;;;5099438;28;10181;-74
2022/01/26 07:34:21;;;;;;;;;85.25;66.00;;;;;;;;5099483;28;11766;-74
2022/01/26 07:36:49;;;;;;;;;76.25;62.00;;;;;;;;5098016;28;12293;-75
2022/01/26 07:39:17;;;;;;;;;87.25;65.00;;;;;;;;5097658;28;10444;-73
2022/01/26 07:41:45;;;;;;;;;93.00;72.00;;;;;;;;5094460;28;12315;-74
2022/01/26 07:44:11;;;;;;;;;82.25;66.00;;;;;;;;5096559;28;12392;-75
2022/01/26 07:46:37;;;;;;;;;78.25;62.00;;;;;;;;5095498;28;12432;-76
2022/01/26 07:49:02;;;;;;;;;78.25;63.00;;;;;;;;5098117;28;10346;-74
2022/01/26 07:51:28;;;;;;;;;73.50;59.75;;;;;;;;5098478;28;8860;-75
2022/01/26 07:53:53;;;;;;;;;78.00;62.50;;;;;;;;5098455;28;12261;-74
2022/01/26 07:56:18;;;;;;;;;76.50;60.75;;;;;;;;5097892;28;12185;-75
2022/01/26 07:58:47;;;;;;;;;82.00;61.50;;;;;;;;5098175;28;11378;-74
2022/01/26 08:01:12;;;;;;;;;86.25;60.50;;;;;;;;5098210;28;13642;-72
2022/01/26 08:03:38;;;;;;;;;78.75;61.00;;;;;;;;5099026;28;10584;-75
2022/01/26 08:06:04;;;;;;;;;83.50;66.25;;;;;;;;5097957;28;13208;-73
2022/01/26 08:08:30;;;;;;;;;85.25;64.50;;;;;;;;5097322;28;13342;-72
2022/01/26 08:10:59;;;;;;;;;85.75;69.75;;;;;;;;5098146;28;11628;-72
2022/01/26 08:13:24;;;;;;;;;84.00;63.25;;;;;;;;5096992;28;10473;-71
2022/01/26 08:15:49;;;;;;;;;77.50;64.00;;;;;;;;5097426;28;10360;-72
2022/01/26 08:18:15;;;;;;;;;78.75;63.25;;;;;;;;5098060;28;14290;-72
2022/01/26 08:20:40;;;;;;;;;81.00;63.50;;;;;;;;5094105;28;11539;-71
2022/01/26 08:23:06;;;;;;;;;69.50;56.25;;;;;;;;5111742;28;15953;-70
2022/01/26 08:25:31;;;;;;;;;73.00;59.00;;;;;;;;5108993;28;13247;-73
2022/01/26 08:28:07;;;;;;;;;77.25;60.50;;;;;;;;5096974;28;13730;-71
2022/01/26 08:30:36;;;;;;;;;82.00;64.25;;;;;;;;5096937;28;12596;-72
2022/01/26 08:33:02;;;;;;;;;69.00;55.75;;;;;;;;5096838;28;13512;-74
2022/01/26 08:35:28;;;;;;;;;65.75;53.00;;;;;;;;5088786;28;12294;-72
2022/01/26 08:37:53;;;;;;;;;68.50;56.00;;;;;;;;5096387;28;11385;-72
2022/01/26 08:40:18;;;;;;;;;71.25;57.00;;;;;;;;5103931;28;10346;-71
2022/01/26 08:42:43;;;;;;;;;67.00;54.00;;;;;;;;5107113;28;12240;-71
2022/01/26 08:45:09;;;;;;;;;73.00;58.00;;;;;;;;5063113;28;12525;-72
2022/01/26 08:47:35;;;;;;;;;67.75;55.75;;;;;;;;5099661;28;11302;-71
2022/01/26 08:50:00;;;;;;;;;66.00;55.50;;;;;;;;5100441;28;14462;-71
2022/01/26 08:52:25;;;;;;;;;59.25;48.00;;;;;;;;5095294;28;11612;-71
2022/01/26 08:54:51;;;;;;;;;34.75;34.75;;;;;;;;5083473;28;15451;-70
2022/01/26 08:57:16;;;;;;;;;70.50;56.75;;;;;;;;5100713;28;13282;-72
2022/01/26 08:59:41;;;;;;;;;66.50;55.50;;;;;;;;5101358;28;12390;-71
2022/01/26 09:02:07;;;;;;;;;73.00;59.00;;;;;;;;5089317;28;13280;-73
2022/01/26 09:04:32;;;;;;;;;65.25;55.00;;;;;;;;5091174;28;13216;-70
2022/01/26 09:07:01;;;;;;;;;70.50;58.75;;;;;;;;5092405;28;12173;-71
2022/01/26 09:09:30;;;;;;;;;71.50;55.00;;;;;;;;5096314;28;13709;-71
2022/01/26 09:11:57;;;;;;;;;70.75;58.50;;;;;;;;5092924;28;11657;-72
2022/01/26 09:14:26;;;;;;;;;73.75;59.00;;;;;;;;5094178;28;11470;-71
2022/01/26 09:16:53;;;;;;;;;80.00;63.25;;;;;;;;5100264;28;11474;-72
2022/01/26 09:19:30;;;;;;;;;79.00;61.50;;;;;;;;5100236;28;14524;-74
2022/01/26 09:21:56;;;;;;;;;78.25;61.25;;;;;;;;5098670;28;13547;-72
2022/01/26 09:24:22;;;;;;;;;75.50;60.50;;;;;;;;5081950;28;13462;-70
2022/01/26 09:26:47;;;;;;;;;77.00;62.00;;;;;;;;5105280;28;12420;-71
2022/01/26 09:29:13;;;;;;;;;73.75;59.50;;;;;;;;5089677;28;12431;-70
2022/01/26 09:31:38;;;;;;;;;82.75;63.00;;;;;;;;5087928;28;12238;-72
2022/01/26 09:34:03;;;;;;;;;82.50;64.75;;;;;;;;5075367;28;15624;-71
2022/01/26 09:36:30;;;;;;;;;77.75;61.50;;;;;;;;5089777;28;11027;-72
2022/01/26 09:38:56;;;;;;;;;87.00;67.50;;;;;;;;5071705;28;15559;-71
2022/01/26 09:41:22;;;;;;;;;86.00;67.00;;;;;;;;5087119;28;12481;-72
2022/01/26 09:43:48;;;;;;;;;80.50;65.50;;;;;;;;5080066;28;11411;-72
2022/01/26 09:46:13;;;;;;;;;84.00;66.25;;;;;;;;5081685;28;11419;-72
2022/01/26 09:48:39;;;;;;;;;82.00;64.00;;;;;;;;5091120;28;11385;-71
2022/01/26 09:51:05;;;;;;;;;83.00;65.00;;;;;;;;5092528;28;12432;-73
2022/01/26 09:53:33;;;;;;;;;87.50;67.75;;;;;;;;5098733;28;9174;-71
2022/01/26 09:55:58;;;;;;;;;82.50;65.25;;;;;;;;5099602;28;11644;-71
2022/01/26 09:58:24;;;;;;;;;87.50;69.25;;;;;;;;5100023;28;10384;-71
2022/01/26 10:00:57;;;;;;;;;86.50;66.00;;;;;;;;5099965;28;8993;-71
2022/01/26 10:03:24;;;;;;;;;83.75;66.00;;;;;;;;5080108;28;11794;-70
2022/01/26 10:05:49;;;;;;;;;88.75;70.75;;;;;;;;5079593;28;9125;-72
2022/01/26 10:19:03;;;;;;;;;90.50;70.50;;;;;;;;5099244;28;12295;-70
2022/01/26 10:21:28;;;;;;;;;85.25;68.75;;;;;;;;5099976;28;11463;-70
2022/01/26 10:23:57;;;;;;;;;82.50;63.75;;;;;;;;5099069;28;13202;-70
2022/01/26 10:26:23;;;;;;;;;83.00;64.00;;;;;;;;5099069;28;10445;-68
2022/01/26 10:28:52;;;;;;;;;89.75;71.00;;;;;;;;5098998;28;11623;-71
2022/01/26 10:31:18;;;;;;;;;80.50;64.75;;;;;;;;5099206;28;11476;-70
2022/01/26 10:33:57;;;;;;;;;86.00;67.00;;;;;;;;5094244;28;12185;-70
2022/01/26 10:36:22;;;;;;;;;85.25;66.25;;;;;;;;5088864;28;11190;-71
2022/01/26 10:39:00;;;;;;;;;87.25;67.00;;;;;;;;5086676;28;13015;-70
2022/01/26 10:41:26;;;;;;;;;89.00;71.00;;;;;;;;5087123;28;11716;-72
2022/01/26 10:43:54;;;;;;;;;86.75;69.00;;;;;;;;5087364;28;11401;-72
2022/01/26 10:46:26;;;;;;;;;87.75;70.50;;;;;;;;5088685;28;11945;-73
2022/01/26 10:49:05;;;;;;;;;92.00;73.75;;;;;;;;5087298;28;13662;-72
2022/01/26 10:51:51;;;;;;;;;93.50;77.75;;;;;;;;5086929;28;14906;-72
2022/01/26 10:54:23;;;;;;;;;84.25;66.50;;;;;;;;5085875;28;10488;-70
2022/01/26 10:56:49;;;;;;;;;91.25;76.00;;;;;;;;5086561;28;13529;-71
2022/01/26 10:59:16;;;;;;;;;85.50;67.50;;;;;;;;5089793;28;13367;-71
2022/01/26 11:01:41;;;;;;;;;90.00;71.50;;;;;;;;5086459;28;13433;-72
2022/01/26 11:04:07;;;;;;;;;87.00;69.25;;;;;;;;5087838;28;13471;-70
2022/01/26 11:06:32;;;;;;;;;86.50;67.00;;;;;;;;5087353;28;13341;-70
2022/01/26 11:09:00;;;;;;;;;87.50;71.50;;;;;;;;5085937;28;11384;-73
2022/01/26 11:11:25;;;;;;;;;84.50;67.50;;;;;;;;5086703;28;12336;-73
2022/01/26 11:13:52;;;;;;;;;85.50;69.25;;;;;;;;5087652;28;10056;-70
2022/01/26 11:16:20;;;;;;;;;85.00;64.75;;;;;;;;5087124;28;11465;-72
2022/01/26 11:18:46;;;;;;;;;89.50;72.00;;;;;;;;5086682;28;10064;-72
2022/01/26 11:21:15;;;;;;;;;85.25;66.50;;;;;;;;5088158;28;13391;-71
2022/01/26 11:23:41;;;;;;;;;88.00;71.00;;;;;;;;5088985;28;12334;-73
2022/01/26 11:26:06;;;;;;;;;83.00;65.00;;;;;;;;5084549;28;13902;-71
2022/01/26 11:28:31;;;;;;;;;85.75;66.25;;;;;;;;5085945;28;9542;-70
2022/01/26 11:31:03;;;;;;;;;85.25;66.00;;;;;;;;5087089;28;11837;-69
2022/01/26 11:33:30;;;;;;;;;88.25;68.75;;;;;;;;5088237;28;9700;-69
2022/01/26 11:35:57;;;;;;;;;88.50;69.00;;;;;;;;5077808;28;11538;-70
2022/01/26 11:46:59;;;;;;;;;91.00;73.50;;;;;;;;5098011;28;13236;-70
2022/01/26 11:49:34;;;;;;;;;86.50;66.75;;;;;;;;5097282;28;11801;-70
2022/01/26 11:52:00;;;;;;;;;84.75;67.00;;;;;;;;5097989;28;13371;-71
2022/01/26 11:54:49;;;;;;;;;83.50;65.75;;;;;;;;5080327;28;11708;-79
2022/01/26 11:57:18;;;;;;;;;86.50;69.50;;;;;;;;5080192;28;13443;-81
2022/01/26 11:59:49;;;;;;;;;87.75;66.25;;;;;;;;5099095;28;11985;-81
2022/01/26 12:02:48;;;;;;;;;84.50;66.50;;;;;;;;5079679;28;13598;-78
2022/01/26 12:05:17;;;;;;;;;83.50;66.75;;;;;;;;5098202;28;11686;-81
2022/01/26 12:08:55;;;;;;;;;74.00;59.00;;;;;;;;5115458;27;78079;-74
2022/01/26 12:11:21;;;;;;;;;75.00;59.50;;;;;;;;5113766;28;23087;-74
2022/01/26 12:13:50;;;;;;;;;78.00;60.25;;;;;;;;5113555;28;11551;-73
2022/01/26 12:16:19;;;;;;;;;76.75;60.25;;;;;;;;5115663;27;12591;-73
2022/01/26 12:33:38;;;;;;;;;70.75;54.75;;;;;;;;5136045;27;11565;-73
2022/01/26 12:43:10;;;;;;;;;72.00;59.25;;;;;;;;5135535;27;10373;-69
2022/01/26 12:45:36;;;;;;;;;71.00;58.00;;;;;;;;5135843;27;10489;-70
2022/01/26 12:48:01;;;;;;;;;67.75;54.50;;;;;;;;5135498;27;11386;-71
2022/01/26 12:50:27;;;;;;;;;71.50;55.00;;;;;;;;5135171;27;13228;-72
2022/01/26 12:52:54;;;;;;;;;67.25;54.25;;;;;;;;5135791;27;13377;-72
2022/01/26 12:55:30;;;;;;;;;67.75;54.25;;;;;;;;5135988;27;13356;-72
2022/01/26 12:57:56;;;;;;;;;67.25;56.25;;;;;;;;5133732;27;8815;-71
2022/01/26 13:00:24;;;;;;;;;70.00;55.75;;;;;;;;5134201;27;9013;-68
2022/01/26 13:02:49;;;;;;;;;67.50;55.00;;;;;;;;5135770;27;12327;-73
2022/01/26 13:05:15;;;;;;;;;78.00;62.25;;;;;;;;5135639;27;13461;-69
2022/01/26 13:07:41;;;;;;;;;69.75;56.25;;;;;;;;5134936;27;13388;-70
2022/01/26 13:10:16;;;;;;;;;68.25;54.75;;;;;;;;5133861;27;12752;-70
2022/01/26 13:12:42;;;;;;;;;70.75;54.25;;;;;;;;5135473;27;10489;-72
2022/01/26 13:15:17;;;;;;;;;69.00;53.00;;;;;;;;5135641;27;12203;-72
2022/01/26 13:17:49;;;;;;;;;66.00;52.33;;;;;;;;5135882;27;13621;-68
2022/01/26 13:28:30;;;;;;;;;66.33;52.00;;;;;;;;5121609;27;11524;-69
2022/01/26 13:41:18;;;;;;;;;63.33;51.33;;;;;;;;5121376;28;10382;-69
2022/01/26 13:54:30;;;;;;;;;65.00;51.67;;;;;;;;5120836;28;11626;-74
2022/01/26 13:56:56;;;;;;;;;64.33;52.00;;;;;;;;5121412;27;11464;-70
2022/01/26 14:01:49;;;;;;;;;56.33;47.00;;;;;;;;5114770;28;11373;-69
2022/01/26 14:04:16;;;;;;;;;57.67;47.33;;;;;;;;5100806;28;13384;-70
2022/01/26 14:06:42;;;;;;;;;60.33;50.00;;;;;;;;5100340;28;11495;-69
2022/01/26 14:09:07;;;;;;;;;56.00;46.33;;;;;;;;5098742;28;15526;-70
2022/01/26 14:11:32;;;;;;;;;58.33;45.33;;;;;;;;5100442;28;13300;-69
2022/01/26 14:13:59;;;;;;;;;59.33;46.33;;;;;;;;5100236;28;10386;-69
2022/01/26 14:16:26;;;;;;;;;63.00;49.33;;;;;;;;5101066;28;10132;-69
2022/01/26 14:26:46;;;;;;;;;55.33;46.00;;;;;;;;5100062;28;13495;-69
2022/01/26 14:29:22;;;;;;;;;54.67;45.67;;;;;;;;5099782;28;13862;-68
2022/01/26 14:56:12;;;;;;;;;57.00;45.33;;;;;;;;5099104;28;10614;-71
2022/01/26 15:09:48;;;;;;;;;47.33;40.33;;;;;;;;5098997;28;10213;-72
2022/01/26 15:18:58;;;;;;;;;36.33;29.33;;;;;;;;5098519;28;13501;-72
2022/01/26 15:33:50;;;;;;;;;36.33;36.00;;;;;;;;5093986;28;11413;-70
2022/01/26 15:48:43;;;;;;;;;36.67;32.67;;;;;;;;5035346;28;13516;-73
2022/01/26 15:53:08;;;;;;;;;36.00;32.00;;;;;;;;5033117;28;13215;-73
2022/01/26 15:58:24;;;;;;;;;45.00;40.00;;;;;;;;5031917;28;12513;-74
2022/01/26 16:06:24;;;;;;;;;39.33;34.00;;;;;;;;5032111;28;11679;-74
2022/01/26 16:26:21;;;;;;;;;41.33;37.33;;;;;;;;5118252;27;12568;-74
2022/01/26 16:35:44;;;;;;;;;36.33;31.67;;;;;;;;5087401;28;10659;-72
2022/01/26 17:11:34;;;;;;;;;50.00;42.67;;;;;;;;5082431;28;13298;-73
2022/01/26 17:25:29;;;;;;;;;54.33;46.33;;;;;;;;5090093;28;11614;-72
2022/01/26 17:46:43;;;;;;;;;55.67;44.33;;;;;;;;5085614;28;11421;-69
2022/01/26 18:16:19;;;;;;;;;87.00;67.50;;;;;;;;5090214;28;12232;-71
2022/01/26 18:32:01;;;;;;;;;83.25;64.75;;;;;;;;5100152;28;12402;-72
2022/01/26 18:51:04;;;;;;;;;90.00;69.00;;;;;;;;5095167;28;14449;-70
2022/01/26 18:53:30;;;;;;;;;93.50;72.00;;;;;;;;5098155;28;12412;-71
2022/01/26 18:55:55;;;;;;;;;95.25;73.50;;;;;;;;5097942;28;11529;-71
2022/01/26 18:58:21;;;;;;;;;92.75;72.50;;;;;;;;5098533;28;12049;-72
2022/01/26 19:00:46;;;;;;;;;95.50;77.00;;;;;;;;5099502;28;9523;-71
2022/01/26 19:03:12;;;;;;;;;97.75;78.25;;;;;;;;5099255;28;11535;-73
2022/01/26 19:05:38;;;;;;;;;96.25;73.50;;;;;;;;5081026;28;11578;-72
2022/01/26 19:08:03;;;;;;;;;95.00;75.00;;;;;;;;5064071;28;11599;-73
2022/01/26 19:10:29;;;;;;;;;95.00;82.25;;;;;;;;5082720;28;11382;-70
2022/01/26 19:12:54;;;;;;;;;96.00;75.25;;;;;;;;5085353;28;10425;-74
2022/01/26 19:15:24;;;;;;;;;91.00;69.25;;;;;;;;5097550;28;10036;-74
2022/01/26 19:20:43;;;;;;;;;98.75;77.50;;;;;;;;5094478;28;12254;-76
2022/01/26 19:25:59;;;;;;;;;98.50;75.25;;;;;;;;5082069;28;13267;-77
2022/01/26 19:28:29;;;;;;;;;96.50;77.00;;;;;;;;5088760;28;12364;-74
2022/01/26 19:44:40;;;;;;;;;101.00;78.50;;;;;;;;5095567;28;23691;-73
2022/01/26 19:52:33;;;;;;;;;94.50;74.75;;;;;;;;5096290;28;23249;-73
2022/01/26 19:54:59;;;;;;;;;96.25;77.50;;;;;;;;5098017;28;8823;-72
2022/01/26 19:57:24;;;;;;;;;99.00;82.75;;;;;;;;5098084;28;11962;-73
2022/01/26 19:59:49;;;;;;;;;99.75;82.25;;;;;;;;5098236;28;12847;-73
2022/01/26 20:02:15;;;;;;;;;101.00;81.50;;;;;;;;5098581;28;8764;-76
2022/01/26 20:04:40;;;;;;;;;95.00;75.75;;;;;;;;5078978;28;25582;-74
2022/01/26 20:07:12;;;;;;;;;100.00;85.25;;;;;;;;5097976;28;23390;-76
2022/01/26 20:09:42;;;;;;;;;95.75;79.25;;;;;;;;5078626;28;23603;-76
2022/01/26 20:12:17;;;;;;;;;104.75;92.25;;;;;;;;5078740;28;26606;-77
2022/01/26 20:14:42;;;;;;;;;95.50;74.50;;;;;;;;5097141;28;23710;-77
2022/01/26 20:17:08;;;;;;;;;107.75;93.50;;;;;;;;5097006;28;23741;-75
2022/01/26 20:19:34;;;;;;;;;98.25;78.00;;;;;;;;5079541;28;25689;-75
2022/01/26 20:21:59;;;;;;;;;105.00;87.00;;;;;;;;5097350;28;23684;-77
2022/01/26 20:24:25;;;;;;;;;100.25;79.75;;;;;;;;5078604;28;25597;-76
2022/01/26 20:26:52;;;;;;;;;115.25;107.50;;;;;;;;5097724;28;12565;-77
2022/01/26 20:29:20;;;;;;;;;121.25;107.00;;;;;;;;5099311;28;23794;-76
2022/01/26 20:31:45;;;;;;;;;116.00;102.00;;;;;;;;5092389;28;13778;-76
2022/01/26 20:34:14;;;;;;;;;106.25;92.00;;;;;;;;5089599;28;13622;-75
2022/01/26 20:36:40;;;;;;;;;101.25;88.50;;;;;;;;5089936;28;23563;-76
2022/01/26 20:39:06;;;;;;;;;101.25;83.50;;;;;;;;5070354;28;12878;-77
2022/01/26 20:41:31;;;;;;;;;116.50;99.50;;;;;;;;5100245;28;9118;-75
2022/01/26 20:43:57;;;;;;;;;104.25;89.00;;;;;;;;5100865;28;12257;-75
2022/01/26 20:46:22;;;;;;;;;99.00;79.25;;;;;;;;5082184;28;12393;-75
2022/01/26 20:48:47;;;;;;;;;100.25;83.50;;;;;;;;5080713;28;25290;-76
2022/01/26 20:51:16;;;;;;;;;101.50;80.00;;;;;;;;5101401;28;24535;-76
2022/01/26 20:53:43;;;;;;;;;103.50;88.00;;;;;;;;5100709;28;10638;-75
2022/01/26 20:56:09;;;;;;;;;98.50;74.25;;;;;;;;5101845;28;8775;-77
2022/01/26 20:58:34;;;;;;;;;99.75;78.75;;;;;;;;5100576;28;23661;-76
2022/01/26 21:01:03;;;;;;;;;98.00;82.50;;;;;;;;5100402;28;11473;-76
2022/01/26 21:03:29;;;;;;;;;99.50;85.75;;;;;;;;5101528;28;12358;-76
2022/01/26 21:05:54;;;;;;;;;95.50;75.50;;;;;;;;5082432;28;13233;-76
2022/01/26 21:08:22;;;;;;;;;93.50;75.00;;;;;;;;5101226;28;12239;-76
2022/01/26 21:10:52;;;;;;;;;96.50;76.50;;;;;;;;5101319;28;11461;-76
2022/01/26 21:13:18;;;;;;;;;93.50;76.00;;;;;;;;5100759;28;11737;-77
2022/01/26 21:15:44;;;;;;;;;95.25;77.25;;;;;;;;5101026;28;11568;-76
2022/01/26 21:18:09;;;;;;;;;86.25;65.25;;;;;;;;5101082;28;11720;-76
2022/01/26 21:20:37;;;;;;;;;96.75;74.00;;;;;;;;5101031;28;10593;-75
2022/01/26 21:23:03;;;;;;;;;89.50;69.50;;;;;;;;5082615;28;15604;-75
2022/01/26 21:25:28;;;;;;;;;93.25;72.00;;;;;;;;5101372;28;13344;-75